sensor_id;sensor_type;location;lat;lon;timestamp;P1;durP1;ratioP1;P2;durP2;ratioP2
49376;SDS011;35253;34.688;33.040;2023-05-15T00:00:08;23.73;;;13.00;;
49376;SDS011;35253;34.688;33.040;2023-05-15T00:02:35;11.70;;;9.23;;
49376;SDS011;35253;34.688;33.040;2023-05-15T00:05:02;14.30;;;8.95;;
49376;SDS011;35253;34.688;33.040;2023-05-15T00:07:29;12.30;;;7.60;;
49376;SDS011;35253;34.688;33.040;2023-05-15T00:09:55;13.40;;;6.40;;
49376;SDS011;35253;34.688;33.040;2023-05-15T00:12:20;11.80;;;6.60;;
49376;SDS011;35253;34.688;33.040;2023-05-15T00:14:46;11.13;;;5.97;;
49376;SDS011;35253;34.688;33.040;2023-05-15T00:17:12;16.77;;;9.32;;
49376;SDS011;35253;34.688;33.040;2023-05-15T00:19:38;9.27;;;6.55;;
49376;SDS011;35253;34.688;33.040;2023-05-15T00:22:03;10.68;;;6.00;;
49376;SDS011;35253;34.688;33.040;2023-05-15T00:24:29;16.75;;;8.30;;
49376;SDS011;35253;34.688;33.040;2023-05-15T00:26:55;13.90;;;6.40;;
49376;SDS011;35253;34.688;33.040;2023-05-15T00:29:21;20.63;;;8.05;;
49376;SDS011;35253;34.688;33.040;2023-05-15T00:31:47;11.63;;;6.15;;
49376;SDS011;35253;34.688;33.040;2023-05-15T00:34:13;11.73;;;7.13;;
49376;SDS011;35253;34.688;33.040;2023-05-15T00:36:39;7.72;;;6.05;;
49376;SDS011;35253;34.688;33.040;2023-05-15T00:39:04;12.18;;;6.63;;
49376;SDS011;35253;34.688;33.040;2023-05-15T00:41:30;8.18;;;6.65;;
49376;SDS011;35253;34.688;33.040;2023-05-15T00:43:57;11.38;;;6.93;;
49376;SDS011;35253;34.688;33.040;2023-05-15T00:46:26;13.38;;;6.75;;
49376;SDS011;35253;34.688;33.040;2023-05-15T00:48:52;10.60;;;6.40;;
49376;SDS011;35253;34.688;33.040;2023-05-15T00:51:20;13.93;;;6.90;;
49376;SDS011;35253;34.688;33.040;2023-05-15T00:53:46;10.73;;;5.82;;
49376;SDS011;35253;34.688;33.040;2023-05-15T00:56:11;8.73;;;6.10;;
49376;SDS011;35253;34.688;33.040;2023-05-15T00:58:37;9.07;;;6.38;;
49376;SDS011;35253;34.688;33.040;2023-05-15T01:01:03;8.70;;;5.72;;
49376;SDS011;35253;34.688;33.040;2023-05-15T01:03:30;12.32;;;6.38;;
49376;SDS011;35253;34.688;33.040;2023-05-15T01:05:55;12.93;;;6.93;;
49376;SDS011;35253;34.688;33.040;2023-05-15T01:08:32;13.82;;;6.07;;
49376;SDS011;35253;34.688;33.040;2023-05-15T01:11:10;13.80;;;7.20;;
49376;SDS011;35253;34.688;33.040;2023-05-15T01:13:38;10.65;;;5.80;;
49376;SDS011;35253;34.688;33.040;2023-05-15T01:16:05;9.65;;;6.13;;
49376;SDS011;35253;34.688;33.040;2023-05-15T01:18:31;9.52;;;6.88;;
49376;SDS011;35253;34.688;33.040;2023-05-15T01:21:05;11.45;;;6.28;;
49376;SDS011;35253;34.688;33.040;2023-05-15T01:32:23;10.95;;;6.13;;
49376;SDS011;35253;34.688;33.040;2023-05-15T01:37:28;10.40;;;5.65;;
49376;SDS011;35253;34.688;33.040;2023-05-15T01:40:02;10.02;;;5.90;;
49376;SDS011;35253;34.688;33.040;2023-05-15T01:42:32;9.90;;;5.93;;
49376;SDS011;35253;34.688;33.040;2023-05-15T01:45:01;10.27;;;5.63;;
49376;SDS011;35253;34.688;33.040;2023-05-15T01:47:32;12.77;;;6.70;;
49376;SDS011;35253;34.688;33.040;2023-05-15T01:50:06;12.32;;;5.50;;
49376;SDS011;35253;34.688;33.040;2023-05-15T01:52:35;11.02;;;7.50;;
49376;SDS011;35253;34.688;33.040;2023-05-15T01:55:06;12.77;;;5.45;;
49376;SDS011;35253;34.688;33.040;2023-05-15T01:57:32;10.82;;;5.53;;
49376;SDS011;35253;34.688;33.040;2023-05-15T02:00:00;13.77;;;6.57;;
49376;SDS011;35253;34.688;33.040;2023-05-15T02:02:26;9.30;;;6.32;;
49376;SDS011;35253;34.688;33.040;2023-05-15T02:04:53;10.40;;;5.40;;
49376;SDS011;35253;34.688;33.040;2023-05-15T02:07:20;8.60;;;4.82;;
49376;SDS011;35253;34.688;33.040;2023-05-15T02:09:47;9.30;;;4.72;;
49376;SDS011;35253;34.688;33.040;2023-05-15T02:12:15;8.52;;;4.53;;
49376;SDS011;35253;34.688;33.040;2023-05-15T02:14:41;13.75;;;5.90;;
49376;SDS011;35253;34.688;33.040;2023-05-15T02:17:07;10.05;;;6.07;;
49376;SDS011;35253;34.688;33.040;2023-05-15T02:19:33;9.23;;;5.05;;
49376;SDS011;35253;34.688;33.040;2023-05-15T02:21:59;11.48;;;5.40;;
49376;SDS011;35253;34.688;33.040;2023-05-15T02:24:25;10.73;;;5.05;;
49376;SDS011;35253;34.688;33.040;2023-05-15T02:29:50;7.22;;;5.18;;
49376;SDS011;35253;34.688;33.040;2023-05-15T02:36:17;11.65;;;5.78;;
49376;SDS011;35253;34.688;33.040;2023-05-15T02:38:18;11.02;;;5.88;;
49376;SDS011;35253;34.688;33.040;2023-05-15T02:40:48;12.55;;;4.88;;
49376;SDS011;35253;34.688;33.040;2023-05-15T02:43:16;9.13;;;5.13;;
49376;SDS011;35253;34.688;33.040;2023-05-15T02:45:44;11.32;;;5.72;;
49376;SDS011;35253;34.688;33.040;2023-05-15T02:48:11;12.88;;;6.90;;
49376;SDS011;35253;34.688;33.040;2023-05-15T02:50:38;15.73;;;6.07;;
49376;SDS011;35253;34.688;33.040;2023-05-15T02:53:05;11.35;;;5.43;;
49376;SDS011;35253;34.688;33.040;2023-05-15T02:55:32;10.93;;;7.55;;
49376;SDS011;35253;34.688;33.040;2023-05-15T02:57:58;7.85;;;5.05;;
49376;SDS011;35253;34.688;33.040;2023-05-15T03:00:24;10.48;;;5.00;;
49376;SDS011;35253;34.688;33.040;2023-05-15T03:02:50;9.65;;;5.57;;
49376;SDS011;35253;34.688;33.040;2023-05-15T03:05:16;12.13;;;5.20;;
49376;SDS011;35253;34.688;33.040;2023-05-15T03:07:41;10.43;;;5.43;;
49376;SDS011;35253;34.688;33.040;2023-05-15T03:10:07;9.45;;;5.30;;
49376;SDS011;35253;34.688;33.040;2023-05-15T03:12:33;12.68;;;5.90;;
49376;SDS011;35253;34.688;33.040;2023-05-15T03:14:59;12.07;;;6.20;;
49376;SDS011;35253;34.688;33.040;2023-05-15T03:17:25;12.07;;;7.03;;
49376;SDS011;35253;34.688;33.040;2023-05-15T03:19:51;14.32;;;7.03;;
49376;SDS011;35253;34.688;33.040;2023-05-15T03:22:17;19.63;;;7.72;;
49376;SDS011;35253;34.688;33.040;2023-05-15T03:24:43;14.07;;;6.30;;
49376;SDS011;35253;34.688;33.040;2023-05-15T03:27:08;14.55;;;6.05;;
49376;SDS011;35253;34.688;33.040;2023-05-15T03:29:34;14.25;;;6.75;;
49376;SDS011;35253;34.688;33.040;2023-05-15T03:32:00;18.05;;;6.10;;
49376;SDS011;35253;34.688;33.040;2023-05-15T03:34:25;12.13;;;6.20;;
49376;SDS011;35253;34.688;33.040;2023-05-15T03:36:51;14.82;;;5.93;;
49376;SDS011;35253;34.688;33.040;2023-05-15T03:39:17;13.10;;;6.55;;
49376;SDS011;35253;34.688;33.040;2023-05-15T03:41:42;11.32;;;6.47;;
49376;SDS011;35253;34.688;33.040;2023-05-15T03:44:08;13.95;;;6.50;;
49376;SDS011;35253;34.688;33.040;2023-05-15T03:46:34;11.82;;;5.95;;
49376;SDS011;35253;34.688;33.040;2023-05-15T03:48:59;9.80;;;6.13;;
49376;SDS011;35253;34.688;33.040;2023-05-15T03:51:25;13.90;;;6.38;;
49376;SDS011;35253;34.688;33.040;2023-05-15T03:53:51;13.15;;;6.75;;
49376;SDS011;35253;34.688;33.040;2023-05-15T03:56:16;11.82;;;6.72;;
49376;SDS011;35253;34.688;33.040;2023-05-15T03:58:42;18.50;;;8.27;;
49376;SDS011;35253;34.688;33.040;2023-05-15T04:01:08;16.00;;;7.05;;
49376;SDS011;35253;34.688;33.040;2023-05-15T04:03:33;15.57;;;8.20;;
49376;SDS011;35253;34.688;33.040;2023-05-15T04:05:59;16.45;;;6.90;;
49376;SDS011;35253;34.688;33.040;2023-05-15T04:08:25;18.63;;;9.40;;
49376;SDS011;35253;34.688;33.040;2023-05-15T04:10:51;18.52;;;10.73;;
49376;SDS011;35253;34.688;33.040;2023-05-15T04:13:16;19.77;;;8.00;;
49376;SDS011;35253;34.688;33.040;2023-05-15T04:15:42;11.18;;;7.40;;
49376;SDS011;35253;34.688;33.040;2023-05-15T04:18:08;14.45;;;8.20;;
49376;SDS011;35253;34.688;33.040;2023-05-15T04:20:33;18.40;;;9.60;;
49376;SDS011;35253;34.688;33.040;2023-05-15T04:22:59;14.00;;;8.90;;
49376;SDS011;35253;34.688;33.040;2023-05-15T04:25:25;15.27;;;10.10;;
49376;SDS011;35253;34.688;33.040;2023-05-15T04:27:52;20.20;;;9.45;;
49376;SDS011;35253;34.688;33.040;2023-05-15T04:30:17;16.52;;;9.13;;
49376;SDS011;35253;34.688;33.040;2023-05-15T04:32:44;19.88;;;9.40;;
49376;SDS011;35253;34.688;33.040;2023-05-15T04:35:09;16.20;;;9.32;;
49376;SDS011;35253;34.688;33.040;2023-05-15T04:37:37;17.15;;;10.00;;
49376;SDS011;35253;34.688;33.040;2023-05-15T04:40:04;18.95;;;10.13;;
49376;SDS011;35253;34.688;33.040;2023-05-15T04:42:32;26.15;;;11.77;;
49376;SDS011;35253;34.688;33.040;2023-05-15T04:44:58;19.52;;;9.90;;
49376;SDS011;35253;34.688;33.040;2023-05-15T04:47:24;16.05;;;10.10;;
49376;SDS011;35253;34.688;33.040;2023-05-15T04:49:49;19.05;;;9.18;;
49376;SDS011;35253;34.688;33.040;2023-05-15T04:52:15;15.23;;;9.70;;
49376;SDS011;35253;34.688;33.040;2023-05-15T04:54:41;19.80;;;8.90;;
49376;SDS011;35253;34.688;33.040;2023-05-15T04:57:07;16.52;;;10.18;;
49376;SDS011;35253;34.688;33.040;2023-05-15T04:59:33;18.67;;;8.57;;
49376;SDS011;35253;34.688;33.040;2023-05-15T05:01:59;11.27;;;8.77;;
49376;SDS011;35253;34.688;33.040;2023-05-15T05:04:25;15.38;;;10.32;;
49376;SDS011;35253;34.688;33.040;2023-05-15T05:06:51;13.07;;;8.85;;
49376;SDS011;35253;34.688;33.040;2023-05-15T05:09:17;22.52;;;10.02;;
49376;SDS011;35253;34.688;33.040;2023-05-15T05:11:44;21.73;;;9.27;;
49376;SDS011;35253;34.688;33.040;2023-05-15T05:14:10;19.33;;;10.77;;
49376;SDS011;35253;34.688;33.040;2023-05-15T05:16:37;25.73;;;9.73;;
49376;SDS011;35253;34.688;33.040;2023-05-15T05:19:03;17.90;;;9.77;;
49376;SDS011;35253;34.688;33.040;2023-05-15T05:21:29;18.30;;;10.05;;
49376;SDS011;35253;34.688;33.040;2023-05-15T05:23:55;22.42;;;10.05;;
49376;SDS011;35253;34.688;33.040;2023-05-15T05:26:20;15.55;;;8.48;;
49376;SDS011;35253;34.688;33.040;2023-05-15T05:28:46;20.50;;;9.68;;
49376;SDS011;35253;34.688;33.040;2023-05-15T05:31:12;25.77;;;11.00;;
49376;SDS011;35253;34.688;33.040;2023-05-15T05:33:38;31.17;;;10.88;;
49376;SDS011;35253;34.688;33.040;2023-05-15T05:36:05;13.98;;;8.82;;
49376;SDS011;35253;34.688;33.040;2023-05-15T05:38:31;15.45;;;8.63;;
49376;SDS011;35253;34.688;33.040;2023-05-15T05:40:57;19.85;;;9.82;;
49376;SDS011;35253;34.688;33.040;2023-05-15T05:43:24;19.58;;;10.57;;
49376;SDS011;35253;34.688;33.040;2023-05-15T05:45:50;15.52;;;10.90;;
49376;SDS011;35253;34.688;33.040;2023-05-15T05:48:16;17.45;;;10.07;;
49376;SDS011;35253;34.688;33.040;2023-05-15T05:50:42;16.27;;;10.68;;
49376;SDS011;35253;34.688;33.040;2023-05-15T05:53:07;17.23;;;9.15;;
49376;SDS011;35253;34.688;33.040;2023-05-15T05:55:33;21.92;;;10.82;;
49376;SDS011;35253;34.688;33.040;2023-05-15T05:57:59;20.55;;;10.95;;
49376;SDS011;35253;34.688;33.040;2023-05-15T06:00:25;17.45;;;10.68;;
49376;SDS011;35253;34.688;33.040;2023-05-15T06:02:55;18.08;;;10.60;;
49376;SDS011;35253;34.688;33.040;2023-05-15T06:05:22;16.58;;;10.75;;
49376;SDS011;35253;34.688;33.040;2023-05-15T06:07:52;20.80;;;12.02;;
49376;SDS011;35253;34.688;33.040;2023-05-15T06:10:18;20.90;;;11.23;;
49376;SDS011;35253;34.688;33.040;2023-05-15T06:12:44;15.18;;;9.57;;
49376;SDS011;35253;34.688;33.040;2023-05-15T06:15:11;19.27;;;10.02;;
49376;SDS011;35253;34.688;33.040;2023-05-15T06:17:36;13.88;;;10.57;;
49376;SDS011;35253;34.688;33.040;2023-05-15T06:20:02;24.20;;;10.07;;
49376;SDS011;35253;34.688;33.040;2023-05-15T06:22:32;18.42;;;11.45;;
49376;SDS011;35253;34.688;33.040;2023-05-15T06:24:58;11.60;;;10.00;;
49376;SDS011;35253;34.688;33.040;2023-05-15T06:27:25;16.60;;;10.10;;
49376;SDS011;35253;34.688;33.040;2023-05-15T06:29:51;15.82;;;9.15;;
49376;SDS011;35253;34.688;33.040;2023-05-15T06:32:17;16.90;;;10.15;;
49376;SDS011;35253;34.688;33.040;2023-05-15T06:34:43;17.45;;;10.85;;
49376;SDS011;35253;34.688;33.040;2023-05-15T06:37:08;17.27;;;9.93;;
49376;SDS011;35253;34.688;33.040;2023-05-15T06:39:35;18.10;;;9.90;;
49376;SDS011;35253;34.688;33.040;2023-05-15T06:42:01;20.70;;;9.35;;
49376;SDS011;35253;34.688;33.040;2023-05-15T06:44:28;20.15;;;10.63;;
49376;SDS011;35253;34.688;33.040;2023-05-15T06:46:55;18.67;;;10.27;;
49376;SDS011;35253;34.688;33.040;2023-05-15T06:49:21;17.20;;;10.35;;
49376;SDS011;35253;34.688;33.040;2023-05-15T06:51:48;20.10;;;10.80;;
49376;SDS011;35253;34.688;33.040;2023-05-15T06:54:14;27.27;;;10.65;;
49376;SDS011;35253;34.688;33.040;2023-05-15T06:56:41;15.18;;;11.10;;
49376;SDS011;35253;34.688;33.040;2023-05-15T06:59:07;17.33;;;10.18;;
49376;SDS011;35253;34.688;33.040;2023-05-15T07:01:32;20.58;;;13.20;;
49376;SDS011;35253;34.688;33.040;2023-05-15T07:03:58;21.08;;;11.55;;
49376;SDS011;35253;34.688;33.040;2023-05-15T07:06:24;16.25;;;10.80;;
49376;SDS011;35253;34.688;33.040;2023-05-15T07:08:50;20.73;;;10.77;;
49376;SDS011;35253;34.688;33.040;2023-05-15T07:11:16;18.23;;;10.93;;
49376;SDS011;35253;34.688;33.040;2023-05-15T07:13:42;20.55;;;11.20;;
49376;SDS011;35253;34.688;33.040;2023-05-15T07:16:08;16.27;;;11.15;;
49376;SDS011;35253;34.688;33.040;2023-05-15T07:18:33;21.02;;;11.73;;
49376;SDS011;35253;34.688;33.040;2023-05-15T07:21:00;14.27;;;8.82;;
49376;SDS011;35253;34.688;33.040;2023-05-15T07:23:26;22.25;;;12.27;;
49376;SDS011;35253;34.688;33.040;2023-05-15T07:25:52;20.92;;;13.55;;
49376;SDS011;35253;34.688;33.040;2023-05-15T07:28:18;19.33;;;10.05;;
49376;SDS011;35253;34.688;33.040;2023-05-15T07:30:44;20.05;;;12.18;;
49376;SDS011;35253;34.688;33.040;2023-05-15T07:33:10;16.08;;;10.20;;
49376;SDS011;35253;34.688;33.040;2023-05-15T07:35:35;20.27;;;11.90;;
49376;SDS011;35253;34.688;33.040;2023-05-15T07:38:01;18.35;;;11.30;;
49376;SDS011;35253;34.688;33.040;2023-05-15T07:40:27;19.35;;;10.57;;
49376;SDS011;35253;34.688;33.040;2023-05-15T07:42:53;20.80;;;11.55;;
49376;SDS011;35253;34.688;33.040;2023-05-15T07:45:19;23.88;;;11.82;;
49376;SDS011;35253;34.688;33.040;2023-05-15T07:47:45;15.80;;;11.48;;
49376;SDS011;35253;34.688;33.040;2023-05-15T07:50:11;19.75;;;12.50;;
49376;SDS011;35253;34.688;33.040;2023-05-15T07:52:38;19.90;;;12.18;;
49376;SDS011;35253;34.688;33.040;2023-05-15T07:55:03;22.65;;;12.80;;
49376;SDS011;35253;34.688;33.040;2023-05-15T07:57:29;19.00;;;11.38;;
49376;SDS011;35253;34.688;33.040;2023-05-15T07:59:56;19.33;;;11.57;;
49376;SDS011;35253;34.688;33.040;2023-05-15T08:02:22;19.75;;;12.40;;
49376;SDS011;35253;34.688;33.040;2023-05-15T08:04:48;17.75;;;11.27;;
49376;SDS011;35253;34.688;33.040;2023-05-15T08:07:13;22.15;;;11.27;;
49376;SDS011;35253;34.688;33.040;2023-05-15T08:09:40;21.15;;;11.85;;
49376;SDS011;35253;34.688;33.040;2023-05-15T08:12:15;22.45;;;13.00;;
49376;SDS011;35253;34.688;33.040;2023-05-15T08:14:49;24.63;;;16.02;;
49376;SDS011;35253;34.688;33.040;2023-05-15T08:17:16;20.17;;;12.65;;
49376;SDS011;35253;34.688;33.040;2023-05-15T08:19:43;28.42;;;13.40;;
49376;SDS011;35253;34.688;33.040;2023-05-15T08:22:08;22.10;;;11.50;;
49376;SDS011;35253;34.688;33.040;2023-05-15T08:24:34;22.63;;;12.32;;
49376;SDS011;35253;34.688;33.040;2023-05-15T08:27:00;19.23;;;12.63;;
49376;SDS011;35253;34.688;33.040;2023-05-15T08:29:26;24.95;;;13.88;;
49376;SDS011;35253;34.688;33.040;2023-05-15T08:31:51;22.88;;;13.48;;
49376;SDS011;35253;34.688;33.040;2023-05-15T08:34:17;33.70;;;14.15;;
49376;SDS011;35253;34.688;33.040;2023-05-15T08:36:43;22.30;;;13.32;;
49376;SDS011;35253;34.688;33.040;2023-05-15T08:39:10;22.23;;;12.05;;
49376;SDS011;35253;34.688;33.040;2023-05-15T08:41:37;25.55;;;13.00;;
49376;SDS011;35253;34.688;33.040;2023-05-15T08:44:11;18.60;;;11.00;;
49376;SDS011;35253;34.688;33.040;2023-05-15T08:46:38;23.40;;;12.68;;
49376;SDS011;35253;34.688;33.040;2023-05-15T08:49:07;21.95;;;12.73;;
49376;SDS011;35253;34.688;33.040;2023-05-15T08:51:52;19.23;;;12.60;;
49376;SDS011;35253;34.688;33.040;2023-05-15T08:54:18;21.80;;;11.88;;
49376;SDS011;35253;34.688;33.040;2023-05-15T08:56:44;20.77;;;13.13;;
49376;SDS011;35253;34.688;33.040;2023-05-15T08:59:10;27.27;;;14.90;;
49376;SDS011;35253;34.688;33.040;2023-05-15T09:01:36;17.40;;;11.55;;
49376;SDS011;35253;34.688;33.040;2023-05-15T09:04:02;28.80;;;15.00;;
49376;SDS011;35253;34.688;33.040;2023-05-15T09:06:28;23.30;;;12.93;;
49376;SDS011;35253;34.688;33.040;2023-05-15T09:08:56;23.45;;;13.93;;
49376;SDS011;35253;34.688;33.040;2023-05-15T09:11:25;18.17;;;12.38;;
49376;SDS011;35253;34.688;33.040;2023-05-15T09:13:51;34.25;;;18.95;;
49376;SDS011;35253;34.688;33.040;2023-05-15T09:16:17;22.95;;;13.95;;
49376;SDS011;35253;34.688;33.040;2023-05-15T09:18:45;17.33;;;11.90;;
49376;SDS011;35253;34.688;33.040;2023-05-15T09:21:23;13.45;;;10.80;;
49376;SDS011;35253;34.688;33.040;2023-05-15T09:23:51;16.45;;;10.70;;
49376;SDS011;35253;34.688;33.040;2023-05-15T09:26:20;15.98;;;11.90;;
49376;SDS011;35253;34.688;33.040;2023-05-15T09:28:46;19.13;;;11.50;;
49376;SDS011;35253;34.688;33.040;2023-05-15T09:31:12;18.17;;;11.68;;
49376;SDS011;35253;34.688;33.040;2023-05-15T09:33:39;31.40;;;16.17;;
49376;SDS011;35253;34.688;33.040;2023-05-15T09:36:07;20.25;;;12.05;;
49376;SDS011;35253;34.688;33.040;2023-05-15T09:38:34;18.90;;;11.38;;
49376;SDS011;35253;34.688;33.040;2023-05-15T09:41:12;21.35;;;11.85;;
49376;SDS011;35253;34.688;33.040;2023-05-15T09:43:38;14.63;;;10.88;;
49376;SDS011;35253;34.688;33.040;2023-05-15T09:46:06;23.38;;;13.95;;
49376;SDS011;35253;34.688;33.040;2023-05-15T09:48:37;16.95;;;10.77;;
49376;SDS011;35253;34.688;33.040;2023-05-15T09:51:04;22.90;;;12.95;;
49376;SDS011;35253;34.688;33.040;2023-05-15T09:53:31;19.27;;;11.18;;
49376;SDS011;35253;34.688;33.040;2023-05-15T09:55:57;23.83;;;11.43;;
49376;SDS011;35253;34.688;33.040;2023-05-15T09:58:23;17.27;;;10.60;;
49376;SDS011;35253;34.688;33.040;2023-05-15T10:00:49;19.10;;;10.88;;
49376;SDS011;35253;34.688;33.040;2023-05-15T10:03:15;15.48;;;11.32;;
49376;SDS011;35253;34.688;33.040;2023-05-15T10:05:43;19.48;;;12.20;;
49376;SDS011;35253;34.688;33.040;2023-05-15T10:08:09;18.08;;;12.70;;
49376;SDS011;35253;34.688;33.040;2023-05-15T10:10:35;22.33;;;12.38;;
49376;SDS011;35253;34.688;33.040;2023-05-15T10:13:01;15.27;;;10.25;;
49376;SDS011;35253;34.688;33.040;2023-05-15T10:15:29;18.90;;;11.32;;
49376;SDS011;35253;34.688;33.040;2023-05-15T10:17:56;14.60;;;10.27;;
49376;SDS011;35253;34.688;33.040;2023-05-15T10:20:24;21.30;;;11.90;;
49376;SDS011;35253;34.688;33.040;2023-05-15T10:22:52;17.13;;;11.65;;
49376;SDS011;35253;34.688;33.040;2023-05-15T10:25:25;19.33;;;11.00;;
49376;SDS011;35253;34.688;33.040;2023-05-15T10:28:10;21.52;;;10.73;;
49376;SDS011;35253;34.688;33.040;2023-05-15T10:30:36;17.95;;;11.45;;
49376;SDS011;35253;34.688;33.040;2023-05-15T10:33:03;16.48;;;10.02;;
49376;SDS011;35253;34.688;33.040;2023-05-15T10:35:29;18.33;;;10.63;;
49376;SDS011;35253;34.688;33.040;2023-05-15T10:37:55;19.33;;;11.60;;
49376;SDS011;35253;34.688;33.040;2023-05-15T10:40:22;17.35;;;11.82;;
49376;SDS011;35253;34.688;33.040;2023-05-15T10:42:48;14.88;;;9.43;;
49376;SDS011;35253;34.688;33.040;2023-05-15T10:45:14;23.15;;;15.07;;
49376;SDS011;35253;34.688;33.040;2023-05-15T10:47:41;15.68;;;9.98;;
49376;SDS011;35253;34.688;33.040;2023-05-15T10:50:08;28.42;;;14.40;;
49376;SDS011;35253;34.688;33.040;2023-05-15T10:52:36;16.60;;;11.32;;
49376;SDS011;35253;34.688;33.040;2023-05-15T10:55:05;15.82;;;9.95;;
49376;SDS011;35253;34.688;33.040;2023-05-15T10:57:31;22.83;;;12.55;;
49376;SDS011;35253;34.688;33.040;2023-05-15T10:59:57;18.02;;;10.75;;
49376;SDS011;35253;34.688;33.040;2023-05-15T11:02:27;18.25;;;10.80;;
49376;SDS011;35253;34.688;33.040;2023-05-15T11:04:59;20.08;;;11.23;;
49376;SDS011;35253;34.688;33.040;2023-05-15T11:07:26;18.50;;;12.02;;
49376;SDS011;35253;34.688;33.040;2023-05-15T11:09:53;22.73;;;11.65;;
49376;SDS011;35253;34.688;33.040;2023-05-15T11:12:19;14.88;;;10.73;;
49376;SDS011;35253;34.688;33.040;2023-05-15T11:17:21;22.88;;;13.05;;
49376;SDS011;35253;34.688;33.040;2023-05-15T11:24:49;29.38;;;13.35;;
49376;SDS011;35253;34.688;33.040;2023-05-15T11:27:27;15.55;;;10.10;;
49376;SDS011;35253;34.688;33.040;2023-05-15T11:33:10;18.50;;;10.20;;
49376;SDS011;35253;34.688;33.040;2023-05-15T11:35:33;14.52;;;9.88;;
49376;SDS011;35253;34.688;33.040;2023-05-15T11:40:47;12.57;;;9.70;;
49376;SDS011;35253;34.688;33.040;2023-05-15T11:48:38;11.68;;;8.35;;
49376;SDS011;35253;34.688;33.040;2023-05-15T11:51:10;14.63;;;9.32;;
49376;SDS011;35253;34.688;33.040;2023-05-15T11:53:45;17.83;;;10.00;;
49376;SDS011;35253;34.688;33.040;2023-05-15T11:56:19;16.73;;;11.43;;
49376;SDS011;35253;34.688;33.040;2023-05-15T11:58:54;19.95;;;9.68;;
49376;SDS011;35253;34.688;33.040;2023-05-15T12:01:21;22.25;;;12.57;;
49376;SDS011;35253;34.688;33.040;2023-05-15T12:03:47;18.63;;;11.30;;
49376;SDS011;35253;34.688;33.040;2023-05-15T12:06:14;23.27;;;12.05;;
49376;SDS011;35253;34.688;33.040;2023-05-15T12:08:40;14.10;;;9.60;;
49376;SDS011;35253;34.688;33.040;2023-05-15T12:11:09;22.17;;;13.85;;
49376;SDS011;35253;34.688;33.040;2023-05-15T12:13:36;17.25;;;9.68;;
49376;SDS011;35253;34.688;33.040;2023-05-15T12:16:02;12.25;;;9.63;;
49376;SDS011;35253;34.688;33.040;2023-05-15T12:18:31;15.48;;;9.52;;
49376;SDS011;35253;34.688;33.040;2023-05-15T12:20:57;11.13;;;9.45;;
49376;SDS011;35253;34.688;33.040;2023-05-15T12:23:24;12.43;;;8.43;;
49376;SDS011;35253;34.688;33.040;2023-05-15T12:25:53;15.02;;;8.85;;
49376;SDS011;35253;34.688;33.040;2023-05-15T12:28:28;11.32;;;8.27;;
49376;SDS011;35253;34.688;33.040;2023-05-15T12:30:57;15.70;;;9.53;;
49376;SDS011;35253;34.688;33.040;2023-05-15T12:33:23;15.77;;;9.18;;
49376;SDS011;35253;34.688;33.040;2023-05-15T12:35:52;15.75;;;10.02;;
49376;SDS011;35253;34.688;33.040;2023-05-15T12:38:19;14.98;;;9.90;;
49376;SDS011;35253;34.688;33.040;2023-05-15T12:40:46;16.02;;;9.95;;
49376;SDS011;35253;34.688;33.040;2023-05-15T12:43:17;17.30;;;9.18;;
49376;SDS011;35253;34.688;33.040;2023-05-15T12:45:43;19.63;;;9.52;;
49376;SDS011;35253;34.688;33.040;2023-05-15T12:48:15;12.65;;;9.95;;
49376;SDS011;35253;34.688;33.040;2023-05-15T12:50:42;21.55;;;11.45;;
49376;SDS011;35253;34.688;33.040;2023-05-15T12:53:11;20.90;;;10.13;;
49376;SDS011;35253;34.688;33.040;2023-05-15T12:55:38;13.15;;;9.40;;
49376;SDS011;35253;34.688;33.040;2023-05-15T12:58:05;33.45;;;17.98;;
49376;SDS011;35253;34.688;33.040;2023-05-15T13:00:34;13.88;;;9.13;;
49376;SDS011;35253;34.688;33.040;2023-05-15T13:03:07;25.25;;;15.20;;
49376;SDS011;35253;34.688;33.040;2023-05-15T13:05:35;13.38;;;9.07;;
49376;SDS011;35253;34.688;33.040;2023-05-15T13:08:02;18.23;;;7.53;;
49376;SDS011;35253;34.688;33.040;2023-05-15T13:10:32;16.30;;;8.50;;
49376;SDS011;35253;34.688;33.040;2023-05-15T13:13:02;10.18;;;7.47;;
49376;SDS011;35253;34.688;33.040;2023-05-15T13:15:35;15.80;;;9.18;;
49376;SDS011;35253;34.688;33.040;2023-05-15T13:20:31;27.38;;;18.33;;
49376;SDS011;35253;34.688;33.040;2023-05-15T13:23:04;16.15;;;9.60;;
49376;SDS011;35253;34.688;33.040;2023-05-15T13:25:30;17.77;;;9.32;;
49376;SDS011;35253;34.688;33.040;2023-05-15T13:27:57;20.83;;;11.45;;
49376;SDS011;35253;34.688;33.040;2023-05-15T13:30:24;15.43;;;10.02;;
49376;SDS011;35253;34.688;33.040;2023-05-15T13:32:50;11.30;;;7.82;;
49376;SDS011;35253;34.688;33.040;2023-05-15T13:35:16;15.15;;;9.70;;
49376;SDS011;35253;34.688;33.040;2023-05-15T13:37:42;13.82;;;8.15;;
49376;SDS011;35253;34.688;33.040;2023-05-15T13:40:09;13.10;;;8.68;;
49376;SDS011;35253;34.688;33.040;2023-05-15T13:42:36;12.27;;;9.63;;
49376;SDS011;35253;34.688;33.040;2023-05-15T13:45:03;17.83;;;8.85;;
49376;SDS011;35253;34.688;33.040;2023-05-15T13:47:29;24.17;;;14.15;;
49376;SDS011;35253;34.688;33.040;2023-05-15T13:49:55;11.93;;;8.52;;
49376;SDS011;35253;34.688;33.040;2023-05-15T13:52:21;14.00;;;8.88;;
49376;SDS011;35253;34.688;33.040;2023-05-15T13:54:46;18.67;;;9.23;;
49376;SDS011;35253;34.688;33.040;2023-05-15T13:57:12;13.45;;;7.20;;
49376;SDS011;35253;34.688;33.040;2023-05-15T13:59:38;20.52;;;10.50;;
49376;SDS011;35253;34.688;33.040;2023-05-15T14:02:03;18.75;;;9.80;;
49376;SDS011;35253;34.688;33.040;2023-05-15T14:04:29;9.52;;;7.95;;
49376;SDS011;35253;34.688;33.040;2023-05-15T14:06:55;11.23;;;8.20;;
49376;SDS011;35253;34.688;33.040;2023-05-15T14:09:20;11.70;;;7.10;;
49376;SDS011;35253;34.688;33.040;2023-05-15T14:11:46;15.93;;;7.47;;
49376;SDS011;35253;34.688;33.040;2023-05-15T14:14:12;8.45;;;7.43;;
49376;SDS011;35253;34.688;33.040;2023-05-15T14:16:37;8.85;;;6.40;;
49376;SDS011;35253;34.688;33.040;2023-05-15T14:19:03;16.60;;;9.77;;
49376;SDS011;35253;34.688;33.040;2023-05-15T14:21:29;13.38;;;8.15;;
49376;SDS011;35253;34.688;33.040;2023-05-15T14:23:55;9.48;;;7.38;;
49376;SDS011;35253;34.688;33.040;2023-05-15T14:26:21;12.63;;;6.95;;
49376;SDS011;35253;34.688;33.040;2023-05-15T14:28:47;9.73;;;6.55;;
49376;SDS011;35253;34.688;33.040;2023-05-15T14:31:13;12.40;;;7.30;;
49376;SDS011;35253;34.688;33.040;2023-05-15T14:33:39;18.83;;;7.57;;
49376;SDS011;35253;34.688;33.040;2023-05-15T14:36:05;15.75;;;10.07;;
49376;SDS011;35253;34.688;33.040;2023-05-15T14:38:35;13.38;;;7.22;;
49376;SDS011;35253;34.688;33.040;2023-05-15T14:41:01;18.52;;;10.40;;
49376;SDS011;35253;34.688;33.040;2023-05-15T14:43:27;12.98;;;7.70;;
49376;SDS011;35253;34.688;33.040;2023-05-15T14:45:53;12.75;;;8.18;;
49376;SDS011;35253;34.688;33.040;2023-05-15T14:48:19;14.73;;;8.07;;
49376;SDS011;35253;34.688;33.040;2023-05-15T14:50:44;11.38;;;6.28;;
49376;SDS011;35253;34.688;33.040;2023-05-15T14:53:10;15.32;;;9.10;;